Time;durP1;ratioP1;P1;durP2;ratioP2;P2;SDS_P1;SDS_P2;PMS_P1;PMS_P2;Temp;Humidity;BMP_temperature;BMP_pressure;BME280_temperature;BME280_humidity;BME280_pressure;Samples;Min_cycle;Max_cycle;Signal;HPM_P1;HPM_P2
2022/12/05 00:01:12;;;;;;;15.68;10.88;;;;;;;;;;5051426;28;20043;-80
2022/12/05 00:03:37;;;;;;;15.82;10.07;;;;;;;;;;5031482;28;20029;-79
2022/12/05 00:06:03;;;;;;;8.45;6.10;;;;;;;;;;5055564;28;20039;-79
2022/12/05 00:08:28;;;;;;;28.73;20.88;;;;;;;;;;5054464;28;20043;-79
2022/12/05 00:10:53;;;;;;;30.52;23.45;;;;;;;;;;5058364;28;20127;-78
2022/12/05 00:13:19;;;;;;;17.33;12.52;;;;;;;;;;5057456;28;20017;-79
2022/12/05 00:15:44;;;;;;;4.78;4.07;;;;;;;;;;5046931;28;20106;-79
2022/12/05 00:18:09;;;;;;;6.57;4.57;;;;;;;;;;5055163;28;20033;-79
2022/12/05 00:20:35;;;;;;;14.38;10.82;;;;;;;;;;5054740;28;20028;-78
2022/12/05 00:23:00;;;;;;;41.40;26.35;;;;;;;;;;5052838;28;20035;-78
2022/12/05 00:25:26;;;;;;;22.00;16.75;;;;;;;;;;5048753;28;20035;-79
2022/12/05 00:27:51;;;;;;;18.17;13.52;;;;;;;;;;5054733;28;20462;-78
2022/12/05 00:30:16;;;;;;;11.18;9.35;;;;;;;;;;5057407;28;20127;-79
2022/12/05 00:32:42;;;;;;;9.27;6.57;;;;;;;;;;5046146;28;20028;-79
2022/12/05 00:35:07;;;;;;;38.70;26.50;;;;;;;;;;5055329;28;20443;-78
2022/12/05 00:37:32;;;;;;;13.38;9.65;;;;;;;;;;5056819;28;20447;-78
2022/12/05 00:39:58;;;;;;;14.45;10.10;;;;;;;;;;5056029;28;20428;-78
2022/12/05 00:42:23;;;;;;;15.52;12.13;;;;;;;;;;5050155;28;20032;-77
2022/12/05 00:44:49;;;;;;;20.13;14.82;;;;;;;;;;5047874;28;20086;-78
2022/12/05 00:47:14;;;;;;;19.15;11.43;;;;;;;;;;5050857;28;20106;-77
2022/12/05 00:49:40;;;;;;;7.20;5.55;;;;;;;;;;5051591;28;20087;-78
2022/12/05 00:52:05;;;;;;;8.82;7.15;;;;;;;;;;5054427;28;20375;-78
2022/12/05 00:54:30;;;;;;;8.52;6.05;;;;;;;;;;5054295;28;20119;-78
2022/12/05 00:56:56;;;;;;;5.72;4.90;;;;;;;;;;5061250;28;20040;-78
2022/12/05 00:59:21;;;;;;;6.22;4.82;;;;;;;;;;5060747;28;20032;-78
2022/12/05 01:01:48;;;;;;;4.35;3.95;;;;;;;;;;5050238;28;20415;-78
2022/12/05 01:04:18;;;;;;;15.25;12.00;;;;;;;;;;5043844;28;20415;-78
2022/12/05 01:06:43;;;;;;;12.88;10.43;;;;;;;;;;5049575;28;20078;-78
2022/12/05 01:09:11;;;;;;;12.32;9.90;;;;;;;;;;5052179;28;20025;-78
2022/12/05 01:11:36;;;;;;;7.10;6.30;;;;;;;;;;5050139;28;20094;-78
2022/12/05 01:14:02;;;;;;;6.22;5.30;;;;;;;;;;5054070;28;20040;-78
2022/12/05 01:16:28;;;;;;;3.70;3.30;;;;;;;;;;5060440;28;20036;-78
2022/12/05 01:18:55;;;;;;;3.17;2.88;;;;;;;;;;5050603;28;20023;-78
2022/12/05 01:21:20;;;;;;;5.80;4.28;;;;;;;;;;5054153;28;20091;-78
2022/12/05 01:23:46;;;;;;;13.25;9.20;;;;;;;;;;5057472;28;20462;-78
2022/12/05 01:26:12;;;;;;;5.05;3.97;;;;;;;;;;5058084;28;20119;-80
2022/12/05 01:28:38;;;;;;;4.28;3.58;;;;;;;;;;5056565;28;20347;-79
2022/12/05 01:31:07;;;;;;;5.53;4.07;;;;;;;;;;5047357;28;20427;-78
2022/12/05 01:33:33;;;;;;;8.60;5.07;;;;;;;;;;5057661;28;20028;-79
2022/12/05 01:35:59;;;;;;;6.57;5.10;;;;;;;;;;5047782;28;20036;-77
2022/12/05 01:38:24;;;;;;;5.07;4.43;;;;;;;;;;5053667;28;20025;-78
2022/12/05 01:40:57;;;;;;;13.77;10.18;;;;;;;;;;5050140;28;20043;-78
2022/12/05 01:43:23;;;;;;;11.77;9.05;;;;;;;;;;5058404;28;20140;-78
2022/12/05 01:45:48;;;;;;;5.20;4.55;;;;;;;;;;5058534;28;20393;-79
2022/12/05 01:48:18;;;;;;;4.63;4.00;;;;;;;;;;5056512;28;20025;-79
2022/12/05 01:50:44;;;;;;;25.52;18.42;;;;;;;;;;5058893;28;20025;-79
2022/12/05 01:53:09;;;;;;;22.63;16.85;;;;;;;;;;5056914;28;20331;-78
2022/12/05 01:55:35;;;;;;;8.98;6.97;;;;;;;;;;5058919;28;20034;-79
2022/12/05 01:58:01;;;;;;;9.35;7.88;;;;;;;;;;5059616;28;20509;-78
2022/12/05 02:00:26;;;;;;;12.50;10.43;;;;;;;;;;5047111;28;20749;-78
2022/12/05 02:02:56;;;;;;;15.45;11.95;;;;;;;;;;5047167;28;20060;-78
2022/12/05 02:05:26;;;;;;;9.75;8.05;;;;;;;;;;5055806;28;20029;-78
2022/12/05 02:07:52;;;;;;;4.50;4.10;;;;;;;;;;5056994;28;20448;-79
2022/12/05 02:10:17;;;;;;;6.93;5.93;;;;;;;;;;5044643;28;20063;-78
2022/12/05 02:12:44;;;;;;;11.40;9.02;;;;;;;;;;5058667;28;20032;-78
2022/12/05 02:15:28;;;;;;;20.15;16.35;;;;;;;;;;5046473;28;20537;-78
2022/12/05 02:18:12;;;;;;;12.13;10.60;;;;;;;;;;5032941;28;20090;-78
2022/12/05 02:20:43;;;;;;;8.80;7.72;;;;;;;;;;5044827;28;20028;-78
2022/12/05 02:23:27;;;;;;;8.23;6.97;;;;;;;;;;5046530;28;20025;-78
2022/12/05 02:25:59;;;;;;;3.42;3.13;;;;;;;;;;5039516;28;20331;-78
2022/12/05 02:28:27;;;;;;;3.60;3.22;;;;;;;;;;5054445;28;20119;-79
2022/12/05 02:30:56;;;;;;;3.38;3.08;;;;;;;;;;5058898;28;20036;-79
2022/12/05 02:33:37;;;;;;;3.17;2.72;;;;;;;;;;5050468;28;20111;-79
2022/12/05 02:36:03;;;;;;;4.07;3.67;;;;;;;;;;5056099;28;20310;-78
2022/12/05 02:38:31;;;;;;;6.20;5.55;;;;;;;;;;5053552;28;21046;-78
2022/12/05 02:41:11;;;;;;;5.03;4.30;;;;;;;;;;5051959;28;20026;-79
2022/12/05 02:43:36;;;;;;;13.43;10.48;;;;;;;;;;5058632;28;20028;-79
2022/12/05 02:46:05;;;;;;;14.40;11.85;;;;;;;;;;5047175;28;20068;-78
2022/12/05 02:48:32;;;;;;;10.70;8.50;;;;;;;;;;5051227;28;20043;-78
2022/12/05 02:50:59;;;;;;;10.98;8.60;;;;;;;;;;5054189;28;20052;-79
2022/12/05 02:53:26;;;;;;;7.63;5.93;;;;;;;;;;5057924;28;20397;-79
2022/12/05 02:55:51;;;;;;;6.40;5.07;;;;;;;;;;5058391;28;20386;-79
2022/12/05 02:58:20;;;;;;;7.10;5.53;;;;;;;;;;5057152;28;20028;-78
2022/12/05 03:00:47;;;;;;;38.97;22.13;;;;;;;;;;5054303;28;20351;-78
2022/12/05 03:03:14;;;;;;;19.05;13.50;;;;;;;;;;5053599;28;20111;-78
2022/12/05 03:05:58;;;;;;;7.53;5.45;;;;;;;;;;5041878;28;20039;-78
2022/12/05 03:08:26;;;;;;;12.13;9.07;;;;;;;;;;5050966;28;20016;-78
2022/12/05 03:10:52;;;;;;;15.18;10.68;;;;;;;;;;5047860;28;20057;-78
2022/12/05 03:13:24;;;;;;;7.57;5.57;;;;;;;;;;5053815;28;20032;-78
2022/12/05 03:15:52;;;;;;;4.00;3.60;;;;;;;;;;5053460;28;20047;-77
2022/12/05 03:18:20;;;;;;;3.25;2.95;;;;;;;;;;5055460;28;20016;-78
2022/12/05 03:20:47;;;;;;;2.72;2.50;;;;;;;;;;5057033;28;20024;-79
2022/12/05 03:23:41;;;;;;;15.40;10.98;;;;;;;;;;5047078;28;20027;-78
2022/12/05 03:26:13;;;;;;;16.05;11.25;;;;;;;;;;4973944;28;20457;-78
2022/12/05 03:28:44;;;;;;;12.75;10.00;;;;;;;;;;4973371;28;20104;-78
2022/12/05 03:31:12;;;;;;;5.20;4.25;;;;;;;;;;4969655;28;20038;-78
2022/12/05 03:33:42;;;;;;;7.45;6.00;;;;;;;;;;4967480;28;20030;-78
2022/12/05 03:36:08;;;;;;;5.45;4.13;;;;;;;;;;4975030;28;20358;-79
2022/12/05 03:38:44;;;;;;;3.03;2.72;;;;;;;;;;4983699;28;20027;-79
2022/12/05 03:41:24;;;;;;;8.60;6.50;;;;;;;;;;4968962;28;20034;-79
2022/12/05 03:43:52;;;;;;;5.10;3.97;;;;;;;;;;4971855;28;20499;-79
2022/12/05 03:46:26;;;;;;;19.17;13.38;;;;;;;;;;4971891;28;20046;-79
2022/12/05 03:49:10;;;;;;;18.50;13.13;;;;;;;;;;4974837;28;20046;-79
2022/12/05 03:51:59;;;;;;;10.68;8.75;;;;;;;;;;4973811;28;20030;-78
2022/12/05 03:54:26;;;;;;;9.40;7.90;;;;;;;;;;4967330;28;20129;-78
2022/12/05 03:57:18;;;;;;;9.25;6.95;;;;;;;;;;4971590;28;20054;-78
2022/12/05 03:59:45;;;;;;;6.35;5.72;;;;;;;;;;4968472;28;20621;-78
2022/12/05 04:02:14;;;;;;;7.60;6.80;;;;;;;;;;5002964;28;20033;-79
2022/12/05 04:04:45;;;;;;;11.90;10.13;;;;;;;;;;5044452;28;20036;-79
2022/12/05 04:07:13;;;;;;;14.23;12.40;;;;;;;;;;5052780;28;20032;-78
2022/12/05 04:09:41;;;;;;;11.75;9.60;;;;;;;;;;5043785;28;20040;-79
2022/12/05 04:12:09;;;;;;;10.18;8.73;;;;;;;;;;5055153;28;21142;-79
2022/12/05 04:14:55;;;;;;;9.98;8.20;;;;;;;;;;5056909;28;20029;-78
2022/12/05 04:17:31;;;;;;;11.68;8.93;;;;;;;;;;5052867;28;20811;-78
2022/12/05 04:22:43;;;;;;;11.35;9.02;;;;;;;;;;5058662;28;20037;-77
2022/12/05 04:27:58;;;;;;;11.85;8.48;;;;;;;;;;5054582;28;20039;-78
2022/12/05 04:30:31;;;;;;;5.80;4.57;;;;;;;;;;5052240;28;20041;-78
2022/12/05 04:33:04;;;;;;;11.55;8.38;;;;;;;;;;5062088;28;20032;-78
2022/12/05 04:35:50;;;;;;;9.13;6.10;;;;;;;;;;5058886;28;20035;-78
2022/12/05 04:38:38;;;;;;;5.93;4.65;;;;;;;;;;5041178;28;20040;-79
2022/12/05 04:41:10;;;;;;;7.25;4.97;;;;;;;;;;5044267;28;20028;-78
2022/12/05 04:43:37;;;;;;;8.27;6.70;;;;;;;;;;5061224;28;20352;-79
2022/12/05 04:46:04;;;;;;;8.60;7.57;;;;;;;;;;5050282;28;20584;-79
2022/12/05 04:48:30;;;;;;;7.55;6.45;;;;;;;;;;5059466;28;20033;-78
2022/12/05 04:50:55;;;;;;;5.82;4.82;;;;;;;;;;5058085;28;20036;-78
2022/12/05 04:53:23;;;;;;;4.85;4.35;;;;;;;;;;5058032;28;20028;-78
2022/12/05 04:55:51;;;;;;;27.23;24.45;;;;;;;;;;5059474;28;20447;-78
2022/12/05 04:58:20;;;;;;;20.48;18.48;;;;;;;;;;5058779;28;20449;-78
2022/12/05 05:01:02;;;;;;;7.40;6.70;;;;;;;;;;5061267;28;20024;-78
2022/12/05 05:03:30;;;;;;;5.32;4.82;;;;;;;;;;5056017;28;20108;-78
2022/12/05 05:05:56;;;;;;;4.25;3.85;;;;;;;;;;5042220;28;20025;-78
2022/12/05 05:08:23;;;;;;;3.63;3.30;;;;;;;;;;5043891;28;20033;-78
2022/12/05 05:11:08;;;;;;;4.97;4.05;;;;;;;;;;5042799;28;20048;-78
2022/12/05 05:13:34;;;;;;;6.00;4.40;;;;;;;;;;5047396;28;20028;-78
2022/12/05 05:15:59;;;;;;;4.13;3.70;;;;;;;;;;5056908;28;22927;-79
2022/12/05 05:18:24;;;;;;;5.70;4.97;;;;;;;;;;5058606;28;20316;-78
2022/12/05 05:20:50;;;;;;;8.52;7.78;;;;;;;;;;5054674;28;20036;-78
2022/12/05 05:23:15;;;;;;;10.52;9.52;;;;;;;;;;5057800;28;20037;-78
2022/12/05 05:25:40;;;;;;;13.52;12.15;;;;;;;;;;5060419;28;20042;-77
2022/12/05 05:28:06;;;;;;;11.02;9.93;;;;;;;;;;5056832;28;20100;-79
2022/12/05 05:30:31;;;;;;;15.63;13.93;;;;;;;;;;5056284;28;20120;-77
2022/12/05 05:32:57;;;;;;;10.90;9.80;;;;;;;;;;5049770;28;20454;-80
2022/12/05 05:35:23;;;;;;;15.35;13.75;;;;;;;;;;5048434;28;20039;-76
2022/12/05 05:37:48;;;;;;;22.92;19.65;;;;;;;;;;5047125;28;20129;-78
2022/12/05 05:40:14;;;;;;;14.40;12.38;;;;;;;;;;5048667;28;20031;-75
2022/12/05 05:42:43;;;;;;;34.70;28.85;;;;;;;;;;5059107;28;20021;-75
2022/12/05 05:45:09;;;;;;;105.27;86.07;;;;;;;;;;5057972;28;20451;-75
2022/12/05 05:47:34;;;;;;;47.10;38.47;;;;;;;;;;5059318;28;20287;-75
2022/12/05 05:49:59;;;;;;;9.60;8.65;;;;;;;;;;5061841;28;20039;-76
2022/12/05 05:52:25;;;;;;;195.02;149.15;;;;;;;;;;5049327;28;20078;-77
2022/12/05 05:54:50;;;;;;;33.47;27.33;;;;;;;;;;5038814;28;20033;-75
2022/12/05 05:57:15;;;;;;;61.30;48.20;;;;;;;;;;5041631;28;20082;-74
2022/12/05 05:59:41;;;;;;;45.70;36.47;;;;;;;;;;5040731;28;20095;-76
2022/12/05 06:02:06;;;;;;;78.00;46.90;;;;;;;;;;5044763;28;20036;-76
2022/12/05 06:04:33;;;;;;;93.85;68.72;;;;;;;;;;5042526;28;20407;-75
2022/12/05 06:06:58;;;;;;;20.67;15.65;;;;;;;;;;5043237;28;20055;-75
2022/12/05 06:09:24;;;;;;;24.60;16.92;;;;;;;;;;5041820;28;20475;-76
2022/12/05 06:11:49;;;;;;;31.60;20.58;;;;;;;;;;5042933;28;20128;-75
2022/12/05 06:14:14;;;;;;;28.08;18.45;;;;;;;;;;5042271;28;20056;-75
2022/12/05 06:16:40;;;;;;;26.00;17.48;;;;;;;;;;5055876;28;20038;-77
2022/12/05 06:19:05;;;;;;;27.30;21.83;;;;;;;;;;5056647;28;23268;-77
2022/12/05 06:21:30;;;;;;;26.40;19.60;;;;;;;;;;5057224;28;20115;-75
2022/12/05 06:23:56;;;;;;;18.20;15.52;;;;;;;;;;5058419;28;20436;-76
2022/12/05 06:26:21;;;;;;;20.92;16.95;;;;;;;;;;5057202;28;20057;-77
2022/12/05 06:28:47;;;;;;;18.50;15.57;;;;;;;;;;5057983;28;20483;-77
2022/12/05 06:31:18;;;;;;;22.65;20.20;;;;;;;;;;5054352;28;20454;-75
2022/12/05 06:33:43;;;;;;;40.00;35.90;;;;;;;;;;5057180;28;20037;-78
2022/12/05 06:36:10;;;;;;;8.40;7.60;;;;;;;;;;5057235;28;20357;-76
2022/12/05 06:38:35;;;;;;;9.98;8.85;;;;;;;;;;5058160;28;20032;-79
2022/12/05 06:41:03;;;;;;;9.65;8.73;;;;;;;;;;5058352;28;20332;-76
2022/12/05 06:43:29;;;;;;;31.92;25.58;;;;;;;;;;5055232;28;20024;-75
2022/12/05 06:45:54;;;;;;;69.07;52.35;;;;;;;;;;5058856;28;20362;-75
2022/12/05 06:48:19;;;;;;;50.88;36.65;;;;;;;;;;5056656;28;20025;-75
2022/12/05 06:50:48;;;;;;;15.52;13.82;;;;;;;;;;5058585;28;20033;-74
2022/12/05 06:53:14;;;;;;;13.93;11.40;;;;;;;;;;5055105;28;20107;-77
2022/12/05 06:55:39;;;;;;;20.10;15.45;;;;;;;;;;5057174;28;20098;-74
2022/12/05 06:58:04;;;;;;;18.63;15.40;;;;;;;;;;5040422;28;20028;-76
2022/12/05 07:03:13;;;;;;;49.85;35.03;;;;;;;;;;5041369;28;20562;-74
2022/12/05 07:05:39;;;;;;;42.17;30.48;;;;;;;;;;5043705;28;20103;-74
2022/12/05 07:08:04;;;;;;;19.88;15.27;;;;;;;;;;5039547;28;20115;-73
2022/12/05 07:10:29;;;;;;;14.07;11.95;;;;;;;;;;5040577;28;20135;-73
2022/12/05 07:12:55;;;;;;;9.05;8.07;;;;;;;;;;5041510;28;20112;-73
2022/12/05 07:15:20;;;;;;;23.42;16.42;;;;;;;;;;5041324;28;20059;-73
2022/12/05 07:17:46;;;;;;;38.67;27.13;;;;;;;;;;5042461;28;20111;-73
2022/12/05 07:20:11;;;;;;;20.73;15.82;;;;;;;;;;5041228;28;20029;-74
2022/12/05 07:22:37;;;;;;;22.88;17.42;;;;;;;;;;5041537;28;20382;-75
2022/12/05 07:25:03;;;;;;;87.10;53.70;;;;;;;;;;5035240;28;20036;-73
2022/12/05 07:27:28;;;;;;;74.85;48.63;;;;;;;;;;5047216;28;20029;-74
2022/12/05 07:29:54;;;;;;;46.78;32.25;;;;;;;;;;5051845;28;20147;-73
2022/12/05 07:32:19;;;;;;;29.48;21.77;;;;;;;;;;5053325;28;20036;-73
2022/12/05 07:34:44;;;;;;;17.73;14.40;;;;;;;;;;5054751;28;20028;-73
2022/12/05 07:37:10;;;;;;;15.18;11.45;;;;;;;;;;5051861;28;20017;-73
2022/12/05 07:39:35;;;;;;;16.42;11.85;;;;;;;;;;5053269;28;20086;-73
2022/12/05 07:42:00;;;;;;;45.55;31.20;;;;;;;;;;5052705;28;20032;-74
2022/12/05 07:44:26;;;;;;;32.97;25.15;;;;;;;;;;5050956;28;20311;-75
2022/12/05 07:46:51;;;;;;;62.28;42.97;;;;;;;;;;5055978;28;20135;-72
2022/12/05 07:49:17;;;;;;;126.20;78.80;;;;;;;;;;5053867;28;20024;-72
2022/12/05 07:51:42;;;;;;;240.40;139.27;;;;;;;;;;5042423;28;20942;-75
2022/12/05 07:54:08;;;;;;;69.15;42.55;;;;;;;;;;5038739;28;20447;-73
2022/12/05 07:56:33;;;;;;;73.82;48.00;;;;;;;;;;5042370;28;20028;-73
2022/12/05 07:58:58;;;;;;;229.55;151.68;;;;;;;;;;5045929;28;20051;-73
2022/12/05 08:01:25;;;;;;;29.75;22.75;;;;;;;;;;5043675;28;20025;-73
2022/12/05 08:03:54;;;;;;;17.02;13.52;;;;;;;;;;5044030;28;20032;-74
2022/12/05 08:06:20;;;;;;;38.65;27.55;;;;;;;;;;5024272;28;20424;-73
2022/12/05 08:08:48;;;;;;;23.10;17.35;;;;;;;;;;5042976;28;20422;-74
2022/12/05 08:11:15;;;;;;;16.45;12.18;;;;;;;;;;5041700;28;20060;-73
2022/12/05 08:13:41;;;;;;;13.45;10.95;;;;;;;;;;5043272;28;20020;-74
2022/12/05 08:16:08;;;;;;;32.90;24.80;;;;;;;;;;5042565;28;20074;-74
2022/12/05 08:18:34;;;;;;;29.65;22.17;;;;;;;;;;5043956;28;20024;-75
2022/12/05 08:21:00;;;;;;;45.88;36.22;;;;;;;;;;5043231;28;20417;-74
2022/12/05 08:23:27;;;;;;;47.17;35.10;;;;;;;;;;5042949;28;20040;-75
2022/12/05 08:25:52;;;;;;;23.63;17.45;;;;;;;;;;5042286;28;20432;-75
2022/12/05 08:28:17;;;;;;;19.50;15.65;;;;;;;;;;5043462;28;20031;-75
2022/12/05 08:30:43;;;;;;;6.90;5.85;;;;;;;;;;5044405;28;20410;-76
2022/12/05 08:33:08;;;;;;;32.65;25.83;;;;;;;;;;5022263;28;20029;-74
2022/12/05 08:35:35;;;;;;;27.17;21.40;;;;;;;;;;5040019;28;20035;-73
2022/12/05 08:38:01;;;;;;;26.60;22.08;;;;;;;;;;5043738;28;20036;-74
2022/12/05 08:40:27;;;;;;;49.45;36.88;;;;;;;;;;5043358;28;20028;-75
2022/12/05 08:42:53;;;;;;;31.60;25.23;;;;;;;;;;5040236;28;20462;-76
2022/12/05 08:45:18;;;;;;;17.20;14.88;;;;;;;;;;5043148;28;20033;-74
2022/12/05 08:47:43;;;;;;;37.75;31.80;;;;;;;;;;5025178;28;20047;-73
2022/12/05 08:50:09;;;;;;;23.92;21.30;;;;;;;;;;5042982;28;20405;-75
2022/12/05 08:52:34;;;;;;;38.30;28.65;;;;;;;;;;5043654;28;20348;-73
2022/12/05 08:54:59;;;;;;;60.97;42.00;;;;;;;;;;5043167;28;20028;-73
2022/12/05 08:57:25;;;;;;;79.28;48.63;;;;;;;;;;5026737;28;20025;-75
2022/12/05 08:59:50;;;;;;;47.60;36.90;;;;;;;;;;5041818;28;20460;-74
2022/12/05 09:02:16;;;;;;;12.65;10.65;;;;;;;;;;5040487;28;20024;-74
2022/12/05 09:04:41;;;;;;;14.73;11.75;;;;;;;;;;5043730;28;20470;-74
2022/12/05 09:07:07;;;;;;;14.82;12.32;;;;;;;;;;5047105;28;20028;-74
2022/12/05 09:09:32;;;;;;;12.10;10.50;;;;;;;;;;5047230;28;20052;-73
2022/12/05 09:11:59;;;;;;;15.80;12.27;;;;;;;;;;5046052;28;20032;-74
2022/12/05 09:14:24;;;;;;;17.40;15.02;;;;;;;;;;5043529;28;20036;-73
2022/12/05 09:16:50;;;;;;;24.02;16.42;;;;;;;;;;5042017;28;20340;-76
2022/12/05 09:19:19;;;;;;;48.13;36.35;;;;;;;;;;5046829;28;20036;-74
2022/12/05 09:21:45;;;;;;;40.38;31.95;;;;;;;;;;5045936;28;20036;-73
2022/12/05 09:24:11;;;;;;;13.73;10.23;;;;;;;;;;5046032;28;20447;-73
2022/12/05 09:26:36;;;;;;;18.00;14.57;;;;;;;;;;5044864;28;20032;-73
2022/12/05 09:29:02;;;;;;;45.65;29.95;;;;;;;;;;5045966;28;20039;-75
2022/12/05 09:31:29;;;;;;;100.32;64.18;;;;;;;;;;5046089;28;20036;-73
2022/12/05 09:33:54;;;;;;;47.75;32.30;;;;;;;;;;5046113;28;20023;-74
2022/12/05 09:36:21;;;;;;;16.65;12.43;;;;;;;;;;5045546;28;20447;-74
2022/12/05 09:38:47;;;;;;;20.60;17.92;;;;;;;;;;5045968;28;20043;-74
2022/12/05 09:42:03;;;;;;;27.27;21.60;;;;;;;;;;5046578;28;20024;-74
2022/12/05 09:44:16;;;;;;;15.00;12.25;;;;;;;;;;5044249;28;20024;-73
2022/12/05 09:46:49;;;;;;;9.70;7.95;;;;;;;;;;5027766;28;20041;-73
2022/12/05 09:49:15;;;;;;;10.52;8.45;;;;;;;;;;5046006;28;20033;-74
2022/12/05 09:51:44;;;;;;;13.32;11.52;;;;;;;;;;5046181;28;20395;-73
2022/12/05 09:54:11;;;;;;;9.95;8.50;;;;;;;;;;5045303;28;20033;-74
2022/12/05 09:56:37;;;;;;;12.07;9.48;;;;;;;;;;5046154;28;20081;-72
2022/12/05 09:59:04;;;;;;;11.48;9.70;;;;;;;;;;5046288;28;20052;-72
2022/12/05 10:01:48;;;;;;;14.32;12.82;;;;;;;;;;5046682;28;20025;-75
2022/12/05 10:04:22;;;;;;;9.32;8.10;;;;;;;;;;5039768;28;20033;-75
2022/12/05 10:06:48;;;;;;;9.70;8.65;;;;;;;;;;5044417;28;20475;-75
2022/12/05 10:09:16;;;;;;;22.23;18.63;;;;;;;;;;5046551;28;20034;-75
2022/12/05 10:11:52;;;;;;;19.92;14.63;;;;;;;;;;5044406;28;20049;-74
2022/12/05 10:14:34;;;;;;;14.93;12.43;;;;;;;;;;5046240;28;20509;-72
2022/12/05 10:17:21;;;;;;;14.85;12.77;;;;;;;;;;5056535;28;20020;-72
2022/12/05 10:19:48;;;;;;;9.30;7.80;;;;;;;;;;5056515;28;20036;-72
2022/12/05 10:22:37;;;;;;;8.48;7.20;;;;;;;;;;5056565;28;20441;-74
2022/12/05 10:25:04;;;;;;;11.35;9.70;;;;;;;;;;5047171;28;20099;-72
2022/12/05 10:27:35;;;;;;;13.43;11.48;;;;;;;;;;5053641;28;20104;-72
2022/12/05 10:30:04;;;;;;;9.50;8.50;;;;;;;;;;5055390;28;20043;-74
2022/12/05 10:32:30;;;;;;;21.38;12.68;;;;;;;;;;5055337;28;20033;-73
2022/12/05 10:35:00;;;;;;;18.55;14.43;;;;;;;;;;5055765;28;20036;-72
2022/12/05 10:37:29;;;;;;;13.70;11.90;;;;;;;;;;5055982;28;20044;-71
2022/12/05 10:39:55;;;;;;;8.18;6.70;;;;;;;;;;5055567;28;20033;-74
2022/12/05 10:42:23;;;;;;;9.48;8.38;;;;;;;;;;5055322;28;20363;-73
2022/12/05 10:44:52;;;;;;;10.15;8.95;;;;;;;;;;5056645;28;20146;-73
2022/12/05 10:47:18;;;;;;;12.40;8.43;;;;;;;;;;5055036;28;20035;-73
2022/12/05 10:49:44;;;;;;;16.67;10.80;;;;;;;;;;5049539;28;20036;-72
2022/12/05 10:52:10;;;;;;;9.98;7.75;;;;;;;;;;5052062;28;20036;-73
2022/12/05 10:54:39;;;;;;;6.53;5.20;;;;;;;;;;5056360;28;20143;-74
2022/12/05 10:57:18;;;;;;;19.53;16.93;;;;;;;;;;5052987;28;20082;-74
2022/12/05 10:59:45;;;;;;;11.07;8.20;;;;;;;;;;5043660;28;20496;-74
2022/12/05 11:02:21;;;;;;;21.10;15.82;;;;;;;;;;5042239;28;20465;-73
2022/12/05 11:04:47;;;;;;;5.82;4.95;;;;;;;;;;5049037;28;20505;-72
2022/12/05 11:07:32;;;;;;;6.25;5.45;;;;;;;;;;5054601;28;20067;-72
2022/12/05 11:09:58;;;;;;;8.43;5.85;;;;;;;;;;5053736;28;20068;-74
2022/12/05 11:12:28;;;;;;;10.57;6.95;;;;;;;;;;5056042;28;20121;-72
2022/12/05 11:14:53;;;;;;;19.52;13.70;;;;;;;;;;5055316;28;20506;-72
2022/12/05 11:17:29;;;;;;;8.13;6.75;;;;;;;;;;5057191;28;20029;-73
2022/12/05 11:19:54;;;;;;;23.50;17.60;;;;;;;;;;5057161;28;20351;-72
2022/12/05 11:22:29;;;;;;;15.68;12.45;;;;;;;;;;5056128;28;20031;-74
2022/12/05 11:24:54;;;;;;;7.00;6.30;;;;;;;;;;5057358;28;20028;-73
2022/12/05 11:27:24;;;;;;;33.70;26.25;;;;;;;;;;5056252;28;20024;-72
2022/12/05 11:30:16;;;;;;;8.38;7.47;;;;;;;;;;5057571;28;20103;-72
2022/12/05 11:32:41;;;;;;;24.27;18.02;;;;;;;;;;5051004;28;20060;-72
2022/12/05 11:35:10;;;;;;;11.48;8.60;;;;;;;;;;5055462;28;20340;-71
2022/12/05 11:37:47;;;;;;;36.97;28.58;;;;;;;;;;5056768;28;20108;-72
2022/12/05 11:40:35;;;;;;;37.00;26.77;;;;;;;;;;5056382;28;20067;-74
2022/12/05 11:43:06;;;;;;;12.77;9.82;;;;;;;;;;5016881;28;20040;-71
2022/12/05 11:45:32;;;;;;;27.35;19.55;;;;;;;;;;5054624;28;20016;-72
2022/12/05 11:48:12;;;;;;;6.88;5.78;;;;;;;;;;5055295;28;20348;-72
2022/12/05 11:50:56;;;;;;;23.00;19.70;;;;;;;;;;5053983;28;20064;-72
2022/12/05 11:53:34;;;;;;;22.52;17.58;;;;;;;;;;5054135;28;20036;-73
2022/12/05 11:56:18;;;;;;;15.02;12.63;;;;;;;;;;5055193;28;20382;-72
2022/12/05 11:58:43;;;;;;;16.40;14.60;;;;;;;;;;5056458;28;20346;-72
2022/12/05 12:01:20;;;;;;;15.93;14.23;;;;;;;;;;5052295;28;20024;-74
2022/12/05 12:04:08;;;;;;;7.13;6.38;;;;;;;;;;5055191;28;20023;-72
2022/12/05 12:07:00;;;;;;;6.13;5.40;;;;;;;;;;5041178;28;20036;-73
2022/12/05 12:09:33;;;;;;;6.25;5.50;;;;;;;;;;5052075;28;20171;-73
2022/12/05 12:12:08;;;;;;;8.90;7.75;;;;;;;;;;5034380;28;20052;-73
2022/12/05 12:14:47;;;;;;;9.35;7.05;;;;;;;;;;5036332;28;20025;-72
2022/12/05 12:17:15;;;;;;;11.77;9.18;;;;;;;;;;5036717;28;20037;-72
2022/12/05 12:19:50;;;;;;;6.90;4.78;;;;;;;;;;5037240;28;20029;-72
2022/12/05 12:22:21;;;;;;;10.45;8.68;;;;;;;;;;5037562;28;20105;-72
2022/12/05 12:25:13;;;;;;;14.98;11.45;;;;;;;;;;5036238;28;20025;-73
2022/12/05 12:27:41;;;;;;;13.68;9.55;;;;;;;;;;5020434;28;20063;-72
2022/12/05 12:30:13;;;;;;;11.65;9.15;;;;;;;;;;5034409;28;20033;-72
2022/12/05 12:32:42;;;;;;;9.98;7.43;;;;;;;;;;5035866;28;20029;-73
2022/12/05 12:35:16;;;;;;;7.50;5.60;;;;;;;;;;5037716;28;20033;-72
2022/12/05 12:37:53;;;;;;;5.72;5.07;;;;;;;;;;5034382;28;20468;-72
2022/12/05 12:40:33;;;;;;;10.45;6.88;;;;;;;;;;5038151;28;20064;-72
2022/12/05 12:43:01;;;;;;;8.65;7.75;;;;;;;;;;5038772;28;20029;-74
2022/12/05 12:45:30;;;;;;;8.30;6.10;;;;;;;;;;5037716;28;20108;-72
2022/12/05 12:48:20;;;;;;;5.70;5.10;;;;;;;;;;5038472;28;20029;-72
2022/12/05 12:50:50;;;;;;;6.45;5.25;;;;;;;;;;5039078;28;20033;-72
2022/12/05 12:53:15;;;;;;;;;;;;;;;;;;5038273;28;20122;-73
2022/12/05 12:55:47;;;;;;;9.80;8.63;;;;;;;;;;5037609;28;19948;-72
2022/12/05 12:58:15;;;;;;;22.10;19.90;;;;;;;;;;5038387;28;20025;-73
2022/12/05 13:00:51;;;;;;;7.35;6.55;;;;;;;;;;5037319;28;20450;-73
2022/12/05 13:03:21;;;;;;;6.45;5.50;;;;;;;;;;5037055;28;20020;-72
2022/12/05 13:05:52;;;;;;;9.20;7.82;;;;;;;;;;5037684;28;20017;-72
2022/12/05 13:08:17;;;;;;;4.85;4.40;;;;;;;;;;5038269;28;20036;-72
2022/12/05 13:10:44;;;;;;;5.25;3.83;;;;;;;;;;5047370;28;20052;-72
2022/12/05 13:13:15;;;;;;;5.72;5.18;;;;;;;;;;5056785;28;20340;-73
2022/12/05 13:15:43;;;;;;;6.35;4.72;;;;;;;;;;5057166;28;20028;-72
2022/12/05 13:18:20;;;;;;;7.75;5.25;;;;;;;;;;5058098;28;20020;-74
2022/12/05 13:20:47;;;;;;;15.02;12.68;;;;;;;;;;5057906;28;20032;-72
2022/12/05 13:23:15;;;;;;;7.38;6.68;;;;;;;;;;5058250;28;20017;-73
2022/12/05 13:25:41;;;;;;;7.82;5.15;;;;;;;;;;5058024;28;20020;-72
2022/12/05 13:28:17;;;;;;;39.47;25.35;;;;;;;;;;5057110;28;20016;-72
2022/12/05 13:31:00;;;;;;;10.07;8.98;;;;;;;;;;5055658;28;20036;-72
2022/12/05 13:33:27;;;;;;;9.65;8.65;;;;;;;;;;5055603;28;20035;-73
2022/12/05 13:44:27;;;;;;;8.48;7.15;;;;;;;;;;5059285;28;20590;-74
2022/12/05 13:46:52;;;;;;;5.85;5.35;;;;;;;;;;5057779;28;20039;-72
2022/12/05 13:49:34;;;;;;;9.98;8.45;;;;;;;;;;5055725;28;20434;-72
2022/12/05 13:52:06;;;;;;;25.02;21.50;;;;;;;;;;5055110;28;20354;-72
2022/12/05 13:54:32;;;;;;;13.38;11.98;;;;;;;;;;5057314;28;20024;-72
2022/12/05 13:57:00;;;;;;;11.15;9.93;;;;;;;;;;5057759;28;20037;-74
2022/12/05 13:59:44;;;;;;;18.23;16.27;;;;;;;;;;5055656;28;20021;-73
2022/12/05 14:02:28;;;;;;;8.15;7.35;;;;;;;;;;5056028;28;20032;-72
2022/12/05 14:04:53;;;;;;;14.90;13.38;;;;;;;;;;5058685;28;20024;-72
2022/12/05 14:07:37;;;;;;;5.68;5.18;;;;;;;;;;5055353;28;20043;-72
2022/12/05 14:10:03;;;;;;;11.57;10.38;;;;;;;;;;5055940;28;20044;-73
2022/12/05 14:12:29;;;;;;;31.20;24.85;;;;;;;;;;5041797;28;20093;-72
2022/12/05 14:14:54;;;;;;;23.10;19.52;;;;;;;;;;5056289;28;20029;-72
2022/12/05 14:17:43;;;;;;;16.60;14.85;;;;;;;;;;5058766;28;20024;-74
2022/12/05 14:20:14;;;;;;;23.50;21.00;;;;;;;;;;5045610;28;20478;-73
2022/12/05 14:22:51;;;;;;;26.83;23.95;;;;;;;;;;5056367;28;20016;-72
2022/12/05 14:25:17;;;;;;;34.75;30.20;;;;;;;;;;5055922;28;20373;-73
2022/12/05 14:27:46;;;;;;;21.15;18.33;;;;;;;;;;5056956;28;20120;-74
2022/12/05 14:30:30;;;;;;;13.52;12.07;;;;;;;;;;5056047;28;20477;-74
2022/12/05 14:32:59;;;;;;;52.55;40.42;;;;;;;;;;5056290;28;20447;-72
2022/12/05 14:35:28;;;;;;;54.60;43.83;;;;;;;;;;5056242;28;20027;-74
2022/12/05 14:37:56;;;;;;;38.47;31.63;;;;;;;;;;5038364;28;20442;-72
2022/12/05 14:40:34;;;;;;;33.22;28.90;;;;;;;;;;5055895;28;20028;-72
2022/12/05 14:42:59;;;;;;;30.95;26.63;;;;;;;;;;5039411;28;20024;-72
2022/12/05 14:45:24;;;;;;;48.17;41.40;;;;;;;;;;5052494;28;20339;-72
2022/12/05 14:47:51;;;;;;;56.03;42.83;;;;;;;;;;5053389;28;20013;-72
2022/12/05 14:50:35;;;;;;;43.42;34.90;;;;;;;;;;5042818;28;20031;-72
2022/12/05 14:53:19;;;;;;;56.75;42.58;;;;;;;;;;5052001;28;20037;-71
2022/12/05 14:55:45;;;;;;;47.38;36.38;;;;;;;;;;5056412;28;20039;-72
2022/12/05 14:58:15;;;;;;;46.08;34.25;;;;;;;;;;5054750;28;20028;-71